Pagrindinis puslapis
METAR-TAF:

METAR-TAF

Oro uostai :

Sitiawan, Malaizija

platuma: 04-13N, ilguma: 100-42E, Aukštis: 7 m

Dabartinis oras

Ataskaita buvo paskelbta 20 minutes, ne 19:00 UTC
Ramus vėjas
Temperatūra 25°C
Drėgmė 94%
Slėgis 1008 hPa
Matomumas: 8000 m
Mažai debesys ne aukštis 800 ft

METAR: WMBA 251900Z 00000KT 8000 FEW008 25/24 Q1008

Laikas: 03:20 (19:20 UTC)


TAF: trūkstamas

Orai ataskaitas ir orų prognozės (METAR, TAF).

turimą stotys yra geltonos ir raudonos taškus žemėlapyje.

Perkelti pele per norėdami pamatyti stoties vardą.

Tada spustelėkite, norėdami matyti oro stebėjimo ir prognozės.

Norėdami pakeisti žemėlapį: spustelėkite ant žalios mygtukų su juodo kryžiaus žemyn,; žalią mygtuką su brūkšneliu, jei norite nutolinti; arba žalių rodyklių gretimoms žemėlapius.


METAR-TAF: